createdAt,value
2022-11-05T00:02:19.734Z,13.60
2022-11-05T00:05:28.468Z,13.57
2022-11-05T00:08:35.678Z,12.75
2022-11-05T00:11:44.976Z,12.55
2022-11-05T00:14:51.994Z,12.70
2022-11-05T00:17:41.431Z,13.90
2022-11-05T00:20:30.336Z,11.10
2022-11-05T00:23:38.059Z,15.07
2022-11-05T00:26:27.508Z,13.88
2022-11-05T00:29:16.833Z,9.00
2022-11-05T00:32:06.018Z,7.82
2022-11-05T00:34:54.923Z,11.75
2022-11-05T00:37:49.643Z,8.98
2022-11-05T00:40:40.777Z,12.65
2022-11-05T00:43:47.955Z,26.00
2022-11-05T00:46:36.901Z,25.65
2022-11-05T00:49:31.972Z,25.40
2022-11-05T00:52:39.521Z,25.73
2022-11-05T00:55:42.954Z,27.10
2022-11-05T00:58:32.521Z,17.15
2022-11-05T01:01:23.448Z,17.42
2022-11-05T01:04:12.903Z,18.55
2022-11-05T01:07:05.413Z,17.08
2022-11-05T01:09:54.504Z,12.93
2022-11-05T01:12:43.462Z,16.50
2022-11-05T01:15:32.557Z,16.08
2022-11-05T01:18:23.290Z,13.70
2022-11-05T01:21:16.765Z,13.98
2022-11-05T01:24:06.175Z,16.30
2022-11-05T01:26:58.905Z,13.65
2022-11-05T01:29:48.152Z,12.00
2022-11-05T01:32:38.777Z,8.10
2022-11-05T01:35:27.702Z,7.63
2022-11-05T01:38:16.675Z,10.43
2022-11-05T01:41:06.589Z,10.57
2022-11-05T01:44:00.879Z,11.43
2022-11-05T01:46:50.239Z,12.60
2022-11-05T01:49:39.621Z,12.75
2022-11-05T01:52:30.453Z,12.88
2022-11-05T01:55:23.459Z,11.25
2022-11-05T01:58:16.079Z,11.30
2022-11-05T02:01:05.251Z,9.35
2022-11-05T02:03:56.596Z,11.40
2022-11-05T02:06:49.131Z,12.70
2022-11-05T02:09:43.472Z,11.35
2022-11-05T02:12:34.713Z,11.18
2022-11-05T02:15:37.787Z,11.38
2022-11-05T02:18:45.616Z,11.00
2022-11-05T02:21:40.655Z,9.50
2022-11-05T02:25:06.654Z,9.18
2022-11-05T02:28:37.345Z,8.85
2022-11-05T02:31:41.688Z,8.63
2022-11-05T02:34:49.126Z,9.63
2022-11-05T02:37:41.942Z,8.60
2022-11-05T02:40:51.060Z,8.70
2022-11-05T02:43:48.733Z,8.68
2022-11-05T02:46:40.344Z,9.07
2022-11-05T02:49:49.124Z,8.38
2022-11-05T02:53:18.826Z,7.95
2022-11-05T02:56:11.831Z,8.43
2022-11-05T02:59:00.737Z,7.13
2022-11-05T03:01:50.643Z,5.80
2022-11-05T03:04:40.141Z,6.63
2022-11-05T03:08:01.276Z,8.90
2022-11-05T03:10:59.912Z,7.90
2022-11-05T03:13:57.812Z,11.10
2022-11-05T03:16:57.723Z,10.00
2022-11-05T03:20:22.403Z,9.00
2022-11-05T03:23:14.425Z,7.78
2022-11-05T03:26:09.730Z,8.18
2022-11-05T03:29:09.440Z,8.23
2022-11-05T03:32:00.273Z,8.65
2022-11-05T03:34:52.810Z,8.93
2022-11-05T03:37:42.957Z,8.20
2022-11-05T03:40:35.896Z,8.95
2022-11-05T03:43:29.051Z,8.88
2022-11-05T03:46:27.990Z,9.13
2022-11-05T03:49:26.885Z,9.50
2022-11-05T03:52:21.774Z,7.70
2022-11-05T03:55:11.224Z,8.48
2022-11-05T03:58:01.097Z,8.77
2022-11-05T04:00:51.211Z,7.82
2022-11-05T04:03:40.725Z,9.70
2022-11-05T04:06:47.720Z,11.05
2022-11-05T04:09:55.800Z,8.68
2022-11-05T04:13:03.177Z,6.93
2022-11-05T04:16:15.682Z,7.15
2022-11-05T04:19:05.420Z,7.13
2022-11-05T04:22:12.676Z,6.82
2022-11-05T04:25:02.173Z,5.82
2022-11-05T04:27:52.286Z,6.13
2022-11-05T04:30:41.805Z,7.30
2022-11-05T04:33:32.813Z,6.65
2022-11-05T04:36:22.227Z,6.35
2022-11-05T04:39:12.640Z,6.10
2022-11-05T04:42:03.134Z,5.60
2022-11-05T04:44:53.320Z,6.50
2022-11-05T04:47:42.632Z,6.68
2022-11-05T04:50:32.099Z,11.88
2022-11-05T04:53:22.647Z,7.10
2022-11-05T04:56:20.345Z,6.95
2022-11-05T04:59:09.200Z,6.63
2022-11-05T05:01:58.312Z,6.00
2022-11-05T05:04:47.966Z,6.03
2022-11-05T05:07:36.907Z,6.22
2022-11-05T05:10:25.876Z,5.60
2022-11-05T05:13:15.366Z,6.45
2022-11-05T05:16:13.153Z,5.68
2022-11-05T05:19:02.170Z,6.22
2022-11-05T05:21:51.101Z,5.32
2022-11-05T05:24:40.625Z,5.10
2022-11-05T05:27:30.673Z,4.53
2022-11-05T05:30:21.822Z,5.13
2022-11-05T05:33:11.213Z,6.20
2022-11-05T05:36:05.829Z,5.25
2022-11-05T05:38:57.810Z,5.53
2022-11-05T05:41:46.358Z,5.75
2022-11-05T05:44:35.267Z,5.20
2022-11-05T05:47:26.179Z,5.93
2022-11-05T05:50:18.984Z,5.90
2022-11-05T05:53:14.115Z,5.88
2022-11-05T05:56:03.414Z,5.07
2022-11-05T05:58:52.763Z,5.07
2022-11-05T06:01:43.097Z,4.53
2022-11-05T06:04:33.048Z,5.43
2022-11-05T06:07:21.719Z,4.35
2022-11-05T06:10:11.207Z,4.35
2022-11-05T06:13:04.494Z,4.35
2022-11-05T06:15:53.385Z,5.75
2022-11-05T06:18:42.181Z,8.10
2022-11-05T06:21:31.904Z,7.30
2022-11-05T06:24:21.328Z,8.43
2022-11-05T06:27:10.769Z,8.93
2022-11-05T06:30:02.629Z,12.73
2022-11-05T06:32:52.002Z,9.13
2022-11-05T06:35:42.707Z,8.68
2022-11-05T06:38:35.069Z,9.75
2022-11-05T06:41:24.321Z,10.63
2022-11-05T06:44:13.301Z,11.00
2022-11-05T06:47:02.486Z,9.63
2022-11-05T06:49:51.353Z,8.88
2022-11-05T06:52:41.324Z,7.38
2022-11-05T06:55:32.362Z,6.93
2022-11-05T06:58:22.399Z,8.13
2022-11-05T07:01:12.073Z,20.27
2022-11-05T07:04:02.462Z,11.98
2022-11-05T07:06:53.859Z,10.73
2022-11-05T07:09:44.174Z,11.88
2022-11-05T07:12:32.989Z,10.18
2022-11-05T07:15:22.561Z,7.65
2022-11-05T07:18:14.889Z,8.70
2022-11-05T07:21:05.691Z,7.55
2022-11-05T07:23:55.397Z,8.93
2022-11-05T07:26:44.339Z,10.30
2022-11-05T07:29:35.069Z,18.10
2022-11-05T07:32:24.162Z,27.15
2022-11-05T07:35:13.147Z,32.33
2022-11-05T07:38:02.687Z,16.30
2022-11-05T07:40:51.970Z,15.57
2022-11-05T07:43:42.238Z,11.57
2022-11-05T07:46:32.369Z,20.58
2022-11-05T07:49:21.400Z,14.77
2022-11-05T07:52:13.261Z,15.48
2022-11-05T07:55:02.781Z,19.65
2022-11-05T07:57:53.136Z,15.52
2022-11-05T08:00:43.981Z,16.10
2022-11-05T08:03:33.151Z,14.75
2022-11-05T08:06:22.353Z,16.55
2022-11-05T08:09:12.494Z,14.98
2022-11-05T08:12:03.104Z,14.38
2022-11-05T08:14:53.103Z,15.50
2022-11-05T08:17:44.398Z,29.85
2022-11-05T08:20:34.597Z,24.00
2022-11-05T08:23:23.714Z,17.23
2022-11-05T08:26:13.472Z,14.25
2022-11-05T08:29:02.432Z,12.25
2022-11-05T08:31:55.554Z,16.08
2022-11-05T08:34:44.794Z,16.38
2022-11-05T08:37:34.029Z,16.55
2022-11-05T08:40:23.896Z,15.50
2022-11-05T08:43:14.935Z,12.50
2022-11-05T08:46:04.552Z,11.93
2022-11-05T08:48:54.139Z,10.70
2022-11-05T08:51:43.225Z,9.82
2022-11-05T08:54:32.357Z,9.25
2022-11-05T08:57:21.545Z,13.32
2022-11-05T09:00:12.592Z,12.55
2022-11-05T09:03:03.599Z,10.13
2022-11-05T09:05:52.684Z,10.57
2022-11-05T09:08:42.088Z,10.27
2022-11-05T09:11:57.099Z,10.98
2022-11-05T09:14:40.787Z,12.18
2022-11-05T09:17:30.548Z,12.43
2022-11-05T09:20:20.619Z,11.38
2022-11-05T09:23:11.810Z,11.38
2022-11-05T09:26:01.000Z,10.48
2022-11-05T09:28:49.919Z,11.43
2022-11-05T09:31:39.440Z,10.68
2022-11-05T09:34:28.655Z,11.20
2022-11-05T09:37:18.164Z,10.30
2022-11-05T09:40:08.742Z,11.63
2022-11-05T09:42:58.449Z,10.52
2022-11-05T09:45:50.505Z,11.15
2022-11-05T09:48:41.132Z,11.77
2022-11-05T09:51:30.369Z,12.73
2022-11-05T09:54:20.365Z,12.85
2022-11-05T09:57:15.629Z,13.73
2022-11-05T10:00:08.466Z,13.93
2022-11-05T10:03:06.366Z,14.80
2022-11-05T10:05:56.978Z,16.08
2022-11-05T10:08:52.013Z,18.25
2022-11-05T10:11:47.884Z,18.10
2022-11-05T10:14:48.220Z,19.10
2022-11-05T10:17:39.423Z,21.85
2022-11-05T10:20:39.416Z,21.25
2022-11-05T10:23:29.832Z,23.38
2022-11-05T10:26:23.167Z,24.42
2022-11-05T10:29:17.098Z,28.08
2022-11-05T10:32:08.182Z,27.38
2022-11-05T10:35:01.819Z,27.10
2022-11-05T10:37:53.172Z,26.80
2022-11-05T10:41:12.936Z,28.15
2022-11-05T10:44:18.616Z,27.25
2022-11-05T10:47:18.955Z,23.98
2022-11-05T10:50:23.665Z,22.30
2022-11-05T10:53:17.642Z,23.02
2022-11-05T10:56:30.367Z,20.63
2022-11-05T10:59:28.815Z,24.02
2022-11-05T11:02:23.852Z,27.77
2022-11-05T11:05:13.517Z,29.52
2022-11-05T11:08:15.266Z,29.80
2022-11-05T11:11:09.803Z,34.55
2022-11-05T11:13:58.716Z,37.15
2022-11-05T11:16:51.291Z,36.58
2022-11-05T11:19:40.484Z,43.97
2022-11-05T11:22:30.684Z,39.95
2022-11-05T11:25:26.211Z,37.92
2022-11-05T11:28:23.165Z,37.33
2022-11-05T11:31:26.666Z,36.75
2022-11-05T11:34:41.825Z,39.80
2022-11-05T11:37:40.528Z,41.65
2022-11-05T11:40:38.955Z,42.90
2022-11-05T11:43:32.185Z,42.17
2022-11-05T11:46:22.448Z,44.05
2022-11-05T11:49:36.531Z,59.90
2022-11-05T11:52:29.539Z,50.17
2022-11-05T11:55:22.317Z,46.35
2022-11-05T11:58:13.252Z,41.78
2022-11-05T12:01:37.616Z,45.22
2022-11-05T12:04:58.318Z,48.65
2022-11-05T12:07:50.350Z,48.85
2022-11-05T12:11:05.296Z,49.80
2022-11-05T12:14:05.188Z,47.80
2022-11-05T12:17:30.153Z,45.00
2022-11-05T12:20:28.338Z,42.78
2022-11-05T12:23:28.772Z,41.40
2022-11-05T12:27:00.711Z,45.00
2022-11-05T12:30:21.641Z,50.03
2022-11-05T12:33:38.867Z,53.20
2022-11-05T12:36:42.733Z,39.92
2022-11-05T12:39:53.513Z,39.28
2022-11-05T12:42:52.891Z,37.63
2022-11-05T12:45:49.062Z,35.72
2022-11-05T12:48:58.095Z,39.47
2022-11-05T12:51:52.823Z,36.50
2022-11-05T12:55:06.196Z,42.25
2022-11-05T12:58:13.154Z,39.30
2022-11-05T13:01:29.401Z,34.42
2022-11-05T13:04:43.208Z,33.25
2022-11-05T13:07:36.243Z,35.05
2022-11-05T13:11:06.320Z,32.38
2022-11-05T13:14:15.366Z,33.92
2022-11-05T13:17:08.729Z,33.30
2022-11-05T13:20:04.663Z,33.28
2022-11-05T13:23:02.042Z,33.10
2022-11-05T13:26:05.072Z,33.70
2022-11-05T13:29:05.988Z,32.38
2022-11-05T13:32:05.534Z,35.25
2022-11-05T13:34:58.851Z,36.88
2022-11-05T13:38:45.443Z,36.75
2022-11-05T13:41:49.767Z,36.78
2022-11-05T13:44:55.812Z,36.33
2022-11-05T13:48:07.558Z,36.67
2022-11-05T13:51:24.192Z,36.55
2022-11-05T13:54:47.562Z,35.80
2022-11-05T13:57:46.009Z,36.65
2022-11-05T14:00:45.592Z,37.05
2022-11-05T14:03:34.810Z,34.22
2022-11-05T14:06:32.709Z,30.20
2022-11-05T14:09:29.250Z,29.60
2022-11-05T14:12:31.105Z,28.13
2022-11-05T14:15:31.137Z,25.63
2022-11-05T14:18:37.019Z,25.60
2022-11-05T14:21:28.898Z,24.30
2022-11-05T14:24:24.028Z,21.33
2022-11-05T14:27:12.958Z,21.73
2022-11-05T14:30:02.534Z,20.63
2022-11-05T14:32:54.080Z,20.90
2022-11-05T14:35:43.428Z,22.10
2022-11-05T14:38:32.411Z,22.80
2022-11-05T14:41:22.867Z,22.02
2022-11-05T14:44:12.622Z,23.40
2022-11-05T14:47:08.201Z,20.48
2022-11-05T14:50:10.416Z,21.63
2022-11-05T14:53:12.256Z,20.20
2022-11-05T14:56:04.090Z,19.23
2022-11-05T14:59:25.475Z,20.00
2022-11-05T15:02:18.581Z,17.88
2022-11-05T15:05:35.679Z,17.17
2022-11-05T15:08:38.874Z,16.40
2022-11-05T15:11:45.253Z,15.65
2022-11-05T15:15:00.288Z,15.23
2022-11-05T15:18:07.058Z,15.65
2022-11-05T15:20:58.911Z,15.38
2022-11-05T15:23:50.496Z,15.88
2022-11-05T15:26:54.267Z,16.25
2022-11-05T15:29:44.143Z,16.08
2022-11-05T15:32:38.218Z,16.08
2022-11-05T15:35:34.616Z,15.02
2022-11-05T15:38:30.009Z,14.70
2022-11-05T15:41:24.737Z,14.20
2022-11-05T15:44:31.698Z,15.10
2022-11-05T15:47:28.099Z,15.45
2022-11-05T15:50:18.415Z,15.40
2022-11-05T15:53:47.370Z,14.40
2022-11-05T15:56:51.823Z,15.65
2022-11-05T15:59:40.705Z,15.55
2022-11-05T16:02:35.309Z,13.55
2022-11-05T16:05:26.084Z,13.77
2022-11-05T16:08:28.941Z,12.43
2022-11-05T16:11:29.460Z,13.07
2022-11-05T16:14:21.086Z,13.07
2022-11-05T16:17:23.482Z,14.13
2022-11-05T16:20:33.578Z,14.95
2022-11-05T16:23:26.598Z,16.05
2022-11-05T16:29:57.009Z,14.07
2022-11-05T16:32:45.565Z,13.45
2022-11-05T16:35:34.387Z,13.00
2022-11-05T16:38:23.590Z,13.13
2022-11-05T16:41:19.355Z,13.30
2022-11-05T16:44:11.702Z,12.30
2022-11-05T16:47:01.266Z,12.57
2022-11-05T16:49:50.938Z,12.45
2022-11-05T16:52:40.700Z,11.93
2022-11-05T16:55:31.090Z,10.50
2022-11-05T16:58:23.535Z,8.60
2022-11-05T17:01:20.097Z,8.50
2022-11-05T17:04:11.325Z,8.23
2022-11-05T17:07:03.313Z,8.07
2022-11-05T17:09:53.882Z,8.48
2022-11-05T17:12:43.693Z,8.02
2022-11-05T17:15:37.794Z,7.95
2022-11-05T17:18:27.867Z,8.35
2022-11-05T17:21:17.987Z,8.75
2022-11-05T17:24:07.168Z,9.23
2022-11-05T17:26:55.966Z,9.50
2022-11-05T17:29:45.080Z,9.80
2022-11-05T17:32:37.362Z,13.07
2022-11-05T17:35:26.540Z,11.95
2022-11-05T17:38:15.849Z,13.50
2022-11-05T17:41:15.239Z,13.57
2022-11-05T17:44:04.740Z,14.13
2022-11-05T17:46:54.090Z,14.65
2022-11-05T17:49:43.288Z,21.17
2022-11-05T17:52:32.973Z,23.15
2022-11-05T17:55:23.056Z,26.90
2022-11-05T17:58:12.894Z,26.67
2022-11-05T18:01:02.793Z,26.80
2022-11-05T18:03:51.930Z,27.52
2022-11-05T18:06:43.983Z,27.33
2022-11-05T18:09:34.419Z,29.17
2022-11-05T18:12:23.365Z,29.92
2022-11-05T18:15:14.413Z,28.10
2022-11-05T18:18:03.758Z,30.25
2022-11-05T18:20:53.129Z,28.33
2022-11-05T18:23:42.416Z,27.55
2022-11-05T18:26:31.742Z,29.63
2022-11-05T18:29:21.242Z,30.55
2022-11-05T18:32:10.343Z,30.70
2022-11-05T18:34:59.204Z,32.17
2022-11-05T18:37:48.539Z,32.22
2022-11-05T18:40:37.770Z,31.23
2022-11-05T18:43:29.190Z,30.98
2022-11-05T18:46:43.209Z,31.08
2022-11-05T18:49:28.188Z,30.33
2022-11-05T18:52:18.408Z,30.20
2022-11-05T18:55:09.237Z,29.95
2022-11-05T18:57:58.423Z,32.90
2022-11-05T19:00:48.534Z,31.80
2022-11-05T19:03:37.423Z,32.78
2022-11-05T19:06:27.790Z,34.42
2022-11-05T19:09:16.560Z,33.22
2022-11-05T19:12:07.489Z,34.30
2022-11-05T19:15:01.895Z,34.75
2022-11-05T19:17:52.205Z,35.08
2022-11-05T19:20:41.507Z,35.08
2022-11-05T19:23:30.874Z,33.55
2022-11-05T19:26:28.574Z,33.30
2022-11-05T19:29:19.252Z,31.92
2022-11-05T19:32:10.146Z,33.13
2022-11-05T19:34:59.100Z,33.50
2022-11-05T19:37:48.628Z,32.85
2022-11-05T19:40:39.376Z,32.85
2022-11-05T19:43:28.017Z,33.10
2022-11-05T19:46:20.671Z,33.30
2022-11-05T19:49:10.197Z,32.47
2022-11-05T19:52:00.061Z,33.58
2022-11-05T19:54:49.232Z,34.08
2022-11-05T19:57:38.596Z,34.88
2022-11-05T20:00:27.742Z,32.53
2022-11-05T20:03:16.350Z,33.83
2022-11-05T20:06:09.008Z,34.15
2022-11-05T20:12:11.370Z,34.20
2022-11-05T20:15:00.415Z,32.78
2022-11-05T20:17:53.620Z,33.50
2022-11-05T20:20:46.923Z,30.05
2022-11-05T20:23:36.992Z,29.58
2022-11-05T20:26:25.811Z,30.05
2022-11-05T20:29:14.865Z,30.15
2022-11-05T20:32:05.170Z,28.60
2022-11-05T20:34:55.451Z,28.02
2022-11-05T20:37:48.420Z,25.45
2022-11-05T20:40:41.734Z,25.75
2022-11-05T20:43:32.702Z,24.08
2022-11-05T20:46:23.580Z,23.48
2022-11-05T20:49:12.847Z,22.83
2022-11-05T20:52:01.962Z,22.45
2022-11-05T20:54:50.786Z,24.20
2022-11-05T20:57:40.551Z,24.48
2022-11-05T21:00:30.163Z,23.85
2022-11-05T21:03:22.592Z,24.65
2022-11-05T21:06:11.583Z,24.45
2022-11-05T21:09:03.321Z,33.08
2022-11-05T21:12:11.583Z,32.17
2022-11-05T21:15:01.510Z,35.38
2022-11-05T21:17:51.540Z,32.22
2022-11-05T21:20:41.518Z,30.50
2022-11-05T21:23:31.549Z,29.42
2022-11-05T21:26:21.310Z,29.48
2022-11-05T21:29:10.137Z,29.40
2022-11-05T21:32:10.787Z,28.95
2022-11-05T21:35:03.339Z,27.65
2022-11-05T21:37:55.501Z,26.65
2022-11-05T21:40:44.581Z,24.48
2022-11-05T21:43:33.920Z,24.88
2022-11-05T21:46:23.367Z,23.70
2022-11-05T21:49:12.650Z,23.80
2022-11-05T21:52:20.083Z,23.23
2022-11-05T21:55:29.317Z,23.85
2022-11-05T21:58:37.497Z,24.13
2022-11-05T22:01:26.530Z,24.10
2022-11-05T22:04:15.478Z,23.05
2022-11-05T22:07:06.487Z,24.02
2022-11-05T22:09:57.350Z,24.75
2022-11-05T22:12:47.959Z,23.70
2022-11-05T22:15:37.441Z,23.17
2022-11-05T22:18:26.794Z,23.33
2022-11-05T22:21:22.110Z,22.50
2022-11-05T22:24:11.646Z,23.27
2022-11-05T22:27:02.016Z,21.23
2022-11-05T22:29:51.682Z,21.60
2022-11-05T22:32:43.584Z,20.35
2022-11-05T22:35:32.638Z,20.40
2022-11-05T22:38:21.792Z,20.42
2022-11-05T22:41:18.488Z,18.52
2022-11-05T22:44:07.780Z,19.20
2022-11-05T22:46:57.100Z,18.65
2022-11-05T22:49:48.085Z,18.73
2022-11-05T22:52:37.121Z,18.85
2022-11-05T22:55:26.384Z,19.58
2022-11-05T22:58:15.818Z,18.08
2022-11-05T23:01:05.926Z,18.33
2022-11-05T23:03:55.912Z,17.33
2022-11-05T23:07:04.040Z,16.92
2022-11-05T23:10:10.972Z,16.48
2022-11-05T23:13:00.033Z,17.13
2022-11-05T23:16:07.413Z,16.13
2022-11-05T23:19:14.287Z,15.82
2022-11-05T23:22:21.626Z,15.25
2022-11-05T23:25:21.009Z,19.38
2022-11-05T23:28:12.287Z,24.10
2022-11-05T23:31:20.441Z,24.80
2022-11-05T23:34:09.285Z,24.75
2022-11-05T23:37:20.070Z,23.17
2022-11-05T23:40:12.427Z,23.20
2022-11-05T23:43:19.687Z,23.63
2022-11-05T23:46:27.765Z,22.30
2022-11-05T23:49:16.666Z,21.30
2022-11-05T23:52:05.947Z,20.58
2022-11-05T23:54:55.308Z,21.42
2022-11-05T23:57:44.389Z,20.92
